sensor_id;sensor_type;location;lat;lon;timestamp;pressure;altitude;pressure_sealevel;temperature;humidity
5574;BME280;2563;52.242;7.956;2023-04-28T00:01:15;100810.41;;;7.58;100.00
5574;BME280;2563;52.242;7.956;2023-04-28T00:03:41;100803.59;;;7.57;100.00
5574;BME280;2563;52.242;7.956;2023-04-28T00:06:06;100798.47;;;7.57;100.00
5574;BME280;2563;52.242;7.956;2023-04-28T00:08:32;100798.44;;;7.59;100.00
5574;BME280;2563;52.242;7.956;2023-04-28T00:10:57;100784.78;;;7.60;100.00
5574;BME280;2563;52.242;7.956;2023-04-28T00:13:23;100785.63;;;7.62;100.00
5574;BME280;2563;52.242;7.956;2023-04-28T00:15:49;100785.63;;;7.59;100.00
5574;BME280;2563;52.242;7.956;2023-04-28T00:18:17;100780.53;;;7.57;100.00
5574;BME280;2563;52.242;7.956;2023-04-28T00:20:42;100777.19;;;7.52;100.00
5574;BME280;2563;52.242;7.956;2023-04-28T00:23:08;100778.88;;;7.52;100.00
5574;BME280;2563;52.242;7.956;2023-04-28T00:25:33;100774.63;;;7.49;100.00
5574;BME280;2563;52.242;7.956;2023-04-28T00:27:59;100774.66;;;7.46;100.00
5574;BME280;2563;52.242;7.956;2023-04-28T00:30:24;100768.72;;;7.42;100.00
5574;BME280;2563;52.242;7.956;2023-04-28T00:32:49;100768.72;;;7.39;100.00
5574;BME280;2563;52.242;7.956;2023-04-28T00:35:15;100761.91;;;7.38;100.00
5574;BME280;2563;52.242;7.956;2023-04-28T00:37:41;100760.22;;;7.36;100.00
5574;BME280;2563;52.242;7.956;2023-04-28T00:40:06;100753.41;;;7.30;100.00
5574;BME280;2563;52.242;7.956;2023-04-28T00:42:32;100740.63;;;7.33;100.00
5574;BME280;2563;52.242;7.956;2023-04-28T00:44:57;100737.19;;;7.34;100.00
5574;BME280;2563;52.242;7.956;2023-04-28T00:47:23;100743.19;;;7.33;100.00
5574;BME280;2563;52.242;7.956;2023-04-28T00:49:48;100736.34;;;7.32;100.00
5574;BME280;2563;52.242;7.956;2023-04-28T00:52:14;100735.50;;;7.30;100.00
5574;BME280;2563;52.242;7.956;2023-04-28T00:54:40;100730.38;;;7.30;100.00
5574;BME280;2563;52.242;7.956;2023-04-28T00:57:07;100729.53;;;7.30;100.00
5574;BME280;2563;52.242;7.956;2023-04-28T00:59:33;100731.25;;;7.28;100.00
5574;BME280;2563;52.242;7.956;2023-04-28T01:01:59;100730.41;;;7.27;100.00
5574;BME280;2563;52.242;7.956;2023-04-28T01:04:25;100724.44;;;7.27;100.00
5574;BME280;2563;52.242;7.956;2023-04-28T01:06:54;100723.59;;;7.23;100.00
5574;BME280;2563;52.242;7.956;2023-04-28T01:09:20;100715.09;;;7.24;100.00
5574;BME280;2563;52.242;7.956;2023-04-28T01:11:45;100715.09;;;7.22;100.00
5574;BME280;2563;52.242;7.956;2023-04-28T01:14:11;100715.13;;;7.19;100.00
5574;BME280;2563;52.242;7.956;2023-04-28T01:16:37;100719.38;;;7.17;100.00
5574;BME280;2563;52.242;7.956;2023-04-28T01:19:06;100715.16;;;7.15;100.00
5574;BME280;2563;52.242;7.956;2023-04-28T01:21:32;100711.72;;;7.16;100.00
5574;BME280;2563;52.242;7.956;2023-04-28T01:23:58;100701.47;;;7.16;100.00
5574;BME280;2563;52.242;7.956;2023-04-28T01:26:24;100705.75;;;7.17;100.00
5574;BME280;2563;52.242;7.956;2023-04-28T01:28:49;100704.91;;;7.15;100.00
5574;BME280;2563;52.242;7.956;2023-04-28T01:31:15;100697.22;;;7.13;100.00
5574;BME280;2563;52.242;7.956;2023-04-28T01:33:40;100692.09;;;7.13;100.00
5574;BME280;2563;52.242;7.956;2023-04-28T01:36:06;100702.34;;;7.13;100.00
5574;BME280;2563;52.242;7.956;2023-04-28T01:38:32;100692.97;;;7.14;100.00
5574;BME280;2563;52.242;7.956;2023-04-28T01:40:58;100691.25;;;7.13;100.00
5574;BME280;2563;52.242;7.956;2023-04-28T01:43:23;100683.59;;;7.14;100.00
5574;BME280;2563;52.242;7.956;2023-04-28T01:45:49;100676.75;;;7.15;100.00
5574;BME280;2563;52.242;7.956;2023-04-28T01:48:15;100667.34;;;7.15;100.00
5574;BME280;2563;52.242;7.956;2023-04-28T01:50:40;100664.78;;;7.15;100.00
5574;BME280;2563;52.242;7.956;2023-04-28T01:53:06;100663.94;;;7.16;100.00
5574;BME280;2563;52.242;7.956;2023-04-28T01:55:31;100660.50;;;7.16;100.00
5574;BME280;2563;52.242;7.956;2023-04-28T01:57:56;100658.78;;;7.18;100.00
5574;BME280;2563;52.242;7.956;2023-04-28T02:00:22;100654.56;;;7.17;100.00
5574;BME280;2563;52.242;7.956;2023-04-28T02:02:48;100658.00;;;7.14;100.00
5574;BME280;2563;52.242;7.956;2023-04-28T02:05:14;100652.03;;;7.14;100.00
5574;BME280;2563;52.242;7.956;2023-04-28T02:07:39;100653.72;;;7.15;100.00
5574;BME280;2563;52.242;7.956;2023-04-28T02:10:06;100652.03;;;7.14;100.00
5574;BME280;2563;52.242;7.956;2023-04-28T02:12:31;100636.69;;;7.11;100.00
5574;BME280;2563;52.242;7.956;2023-04-28T02:14:57;100638.38;;;7.12;100.00
5574;BME280;2563;52.242;7.956;2023-04-28T02:17:22;100643.50;;;7.12;100.00
5574;BME280;2563;52.242;7.956;2023-04-28T02:19:53;100634.94;;;7.13;100.00
5574;BME280;2563;52.242;7.956;2023-04-28T02:22:19;100625.56;;;7.13;100.00
5574;BME280;2563;52.242;7.956;2023-04-28T02:24:44;100619.59;;;7.14;100.00
5574;BME280;2563;52.242;7.956;2023-04-28T02:27:09;100612.72;;;7.18;100.00
5574;BME280;2563;52.242;7.956;2023-04-28T02:29:35;100611.84;;;7.20;100.00
5574;BME280;2563;52.242;7.956;2023-04-28T02:32:00;100613.53;;;7.23;100.00
5574;BME280;2563;52.242;7.956;2023-04-28T02:34:26;100615.25;;;7.22;100.00
5574;BME280;2563;52.242;7.956;2023-04-28T02:36:51;100607.59;;;7.21;100.00
5574;BME280;2563;52.242;7.956;2023-04-28T02:39:16;100616.09;;;7.23;100.00
5574;BME280;2563;52.242;7.956;2023-04-28T02:41:42;100607.56;;;7.24;100.00
5574;BME280;2563;52.242;7.956;2023-04-28T02:44:07;100610.94;;;7.26;100.00
5574;BME280;2563;52.242;7.956;2023-04-28T02:46:33;100605.00;;;7.22;100.00
5574;BME280;2563;52.242;7.956;2023-04-28T02:48:58;100613.56;;;7.21;100.00
5574;BME280;2563;52.242;7.956;2023-04-28T02:51:23;100616.09;;;7.23;100.00
5574;BME280;2563;52.242;7.956;2023-04-28T02:53:49;100602.47;;;7.21;100.00
5574;BME280;2563;52.242;7.956;2023-04-28T02:56:15;100598.19;;;7.20;100.00
5574;BME280;2563;52.242;7.956;2023-04-28T02:58:40;100605.88;;;7.21;100.00
5574;BME280;2563;52.242;7.956;2023-04-28T03:01:05;100608.41;;;7.23;100.00
5574;BME280;2563;52.242;7.956;2023-04-28T03:03:31;100599.03;;;7.22;100.00
5574;BME280;2563;52.242;7.956;2023-04-28T03:05:56;100600.72;;;7.26;100.00
5574;BME280;2563;52.242;7.956;2023-04-28T03:08:22;100599.00;;;7.28;100.00
5574;BME280;2563;52.242;7.956;2023-04-28T03:10:47;100599.78;;;7.32;100.00
5574;BME280;2563;52.242;7.956;2023-04-28T03:13:12;100599.75;;;7.35;100.00
5574;BME280;2563;52.242;7.956;2023-04-28T03:15:38;100598.03;;;7.37;100.00
5574;BME280;2563;52.242;7.956;2023-04-28T03:18:03;100594.59;;;7.41;100.00
5574;BME280;2563;52.242;7.956;2023-04-28T03:20:28;100589.47;;;7.41;100.00
5574;BME280;2563;52.242;7.956;2023-04-28T03:22:54;100588.59;;;7.43;100.00
5574;BME280;2563;52.242;7.956;2023-04-28T03:25:19;100575.78;;;7.42;100.00
5574;BME280;2563;52.242;7.956;2023-04-28T03:27:45;100577.50;;;7.43;100.00
5574;BME280;2563;52.242;7.956;2023-04-28T03:30:10;100574.09;;;7.42;100.00
5574;BME280;2563;52.242;7.956;2023-04-28T03:32:36;100569.81;;;7.41;100.00
5574;BME280;2563;52.242;7.956;2023-04-28T03:35:01;100561.31;;;7.39;100.00
5574;BME280;2563;52.242;7.956;2023-04-28T03:37:27;100558.78;;;7.38;100.00
5574;BME280;2563;52.242;7.956;2023-04-28T03:39:52;100549.38;;;7.38;100.00
5574;BME280;2563;52.242;7.956;2023-04-28T03:42:17;100557.91;;;7.39;100.00
5574;BME280;2563;52.242;7.956;2023-04-28T03:44:43;100546.81;;;7.37;100.00
5574;BME280;2563;52.242;7.956;2023-04-28T03:47:08;100548.53;;;7.38;100.00
5574;BME280;2563;52.242;7.956;2023-04-28T03:49:34;100551.06;;;7.39;100.00
5574;BME280;2563;52.242;7.956;2023-04-28T03:51:59;100542.50;;;7.42;100.00
5574;BME280;2563;52.242;7.956;2023-04-28T03:54:25;100530.56;;;7.39;100.00
5574;BME280;2563;52.242;7.956;2023-04-28T03:56:51;100533.13;;;7.39;100.00
5574;BME280;2563;52.242;7.956;2023-04-28T03:59:16;100532.28;;;7.40;100.00
5574;BME280;2563;52.242;7.956;2023-04-28T04:01:42;100527.16;;;7.40;100.00
5574;BME280;2563;52.242;7.956;2023-04-28T04:04:07;100523.78;;;7.38;100.00
5574;BME280;2563;52.242;7.956;2023-04-28T04:06:32;100525.44;;;7.39;100.00
5574;BME280;2563;52.242;7.956;2023-04-28T04:08:58;100525.44;;;7.41;100.00
5574;BME280;2563;52.242;7.956;2023-04-28T04:11:23;100525.44;;;7.42;100.00
5574;BME280;2563;52.242;7.956;2023-04-28T04:13:49;100526.28;;;7.43;100.00
5574;BME280;2563;52.242;7.956;2023-04-28T04:16:14;100517.75;;;7.42;100.00
5574;BME280;2563;52.242;7.956;2023-04-28T04:18:40;100521.13;;;7.44;100.00
5574;BME280;2563;52.242;7.956;2023-04-28T04:21:05;100524.50;;;7.48;100.00
5574;BME280;2563;52.242;7.956;2023-04-28T04:23:31;100518.50;;;7.51;100.00
5574;BME280;2563;52.242;7.956;2023-04-28T04:25:56;100518.50;;;7.52;100.00
5574;BME280;2563;52.242;7.956;2023-04-28T04:28:22;100515.03;;;7.55;100.00
5574;BME280;2563;52.242;7.956;2023-04-28T04:30:47;100507.31;;;7.56;100.00
5574;BME280;2563;52.242;7.956;2023-04-28T04:33:12;100505.56;;;7.61;100.00
5574;BME280;2563;52.242;7.956;2023-04-28T04:35:38;100499.56;;;7.62;100.00
5574;BME280;2563;52.242;7.956;2023-04-28T04:38:03;100487.59;;;7.63;100.00
5574;BME280;2563;52.242;7.956;2023-04-28T04:40:28;100491.81;;;7.67;100.00
5574;BME280;2563;52.242;7.956;2023-04-28T04:42:54;100493.50;;;7.71;100.00
5574;BME280;2563;52.242;7.956;2023-04-28T04:45:19;100490.06;;;7.72;100.00
5574;BME280;2563;52.242;7.956;2023-04-28T04:47:45;100488.31;;;7.76;100.00
5574;BME280;2563;52.242;7.956;2023-04-28T04:50:11;100495.94;;;7.79;100.00
5574;BME280;2563;52.242;7.956;2023-04-28T04:52:37;100489.03;;;7.82;100.00
5574;BME280;2563;52.242;7.956;2023-04-28T04:55:03;100486.47;;;7.85;100.00
5574;BME280;2563;52.242;7.956;2023-04-28T04:57:28;100482.13;;;7.87;100.00
5574;BME280;2563;52.242;7.956;2023-04-28T04:59:53;100483.00;;;7.88;100.00
5574;BME280;2563;52.242;7.956;2023-04-28T05:02:19;100485.50;;;7.93;100.00
5574;BME280;2563;52.242;7.956;2023-04-28T05:04:44;100480.34;;;7.94;100.00
5574;BME280;2563;52.242;7.956;2023-04-28T05:07:10;100478.59;;;7.98;100.00
5574;BME280;2563;52.242;7.956;2023-04-28T05:09:35;100487.91;;;8.03;100.00
5574;BME280;2563;52.242;7.956;2023-04-28T05:12:01;100490.34;;;8.11;100.00
5574;BME280;2563;52.242;7.956;2023-04-28T05:14:26;100488.47;;;8.22;100.00
5574;BME280;2563;52.242;7.956;2023-04-28T05:16:51;100484.25;;;8.20;100.00
5574;BME280;2563;52.242;7.956;2023-04-28T05:19:17;100485.00;;;8.26;100.00
5574;BME280;2563;52.242;7.956;2023-04-28T05:21:42;100482.38;;;8.29;100.00
5574;BME280;2563;52.242;7.956;2023-04-28T05:24:07;100483.19;;;8.31;100.00
5574;BME280;2563;52.242;7.956;2023-04-28T05:26:34;100488.28;;;8.35;100.00
5574;BME280;2563;52.242;7.956;2023-04-28T05:29:00;100477.97;;;8.41;100.00
5574;BME280;2563;52.242;7.956;2023-04-28T05:31:25;100477.91;;;8.44;100.00
5574;BME280;2563;52.242;7.956;2023-04-28T05:33:51;100476.94;;;8.49;100.00
5574;BME280;2563;52.242;7.956;2023-04-28T05:36:16;100467.56;;;8.50;100.00
5574;BME280;2563;52.242;7.956;2023-04-28T05:38:42;100470.81;;;8.58;100.00
5574;BME280;2563;52.242;7.956;2023-04-28T05:41:08;100464.72;;;8.64;100.00
5574;BME280;2563;52.242;7.956;2023-04-28T05:43:33;100464.56;;;8.73;100.00
5574;BME280;2563;52.242;7.956;2023-04-28T05:45:59;100462.81;;;8.75;100.00
5574;BME280;2563;52.242;7.956;2023-04-28T05:48:25;100455.88;;;8.80;100.00
5574;BME280;2563;52.242;7.956;2023-04-28T05:50:50;100463.50;;;8.85;100.00
5574;BME280;2563;52.242;7.956;2023-04-28T05:53:16;100460.94;;;8.85;100.00
5574;BME280;2563;52.242;7.956;2023-04-28T05:55:41;100470.31;;;8.86;100.00
5574;BME280;2563;52.242;7.956;2023-04-28T05:58:06;100471.06;;;8.92;100.00
5574;BME280;2563;52.242;7.956;2023-04-28T06:00:32;100472.69;;;8.98;100.00
5574;BME280;2563;52.242;7.956;2023-04-28T06:02:58;100474.28;;;9.04;100.00
5574;BME280;2563;52.242;7.956;2023-04-28T06:05:24;100469.81;;;9.13;100.00
5574;BME280;2563;52.242;7.956;2023-04-28T06:07:49;100461.94;;;9.21;100.00
5574;BME280;2563;52.242;7.956;2023-04-28T06:10:15;100466.13;;;9.27;100.00
5574;BME280;2563;52.242;7.956;2023-04-28T06:12:41;100465.22;;;9.29;100.00
5574;BME280;2563;52.242;7.956;2023-04-28T06:15:06;100459.78;;;9.43;100.00
5574;BME280;2563;52.242;7.956;2023-04-28T06:17:32;100457.19;;;9.43;100.00
5574;BME280;2563;52.242;7.956;2023-04-28T06:19:58;100454.72;;;9.40;100.00
5574;BME280;2563;52.242;7.956;2023-04-28T06:22:24;100447.72;;;9.47;100.00
5574;BME280;2563;52.242;7.956;2023-04-28T06:24:50;100452.63;;;9.57;100.00
5574;BME280;2563;52.242;7.956;2023-04-28T06:27:16;100458.56;;;9.59;100.00
5574;BME280;2563;52.242;7.956;2023-04-28T06:29:41;100457.72;;;9.61;100.00
5574;BME280;2563;52.242;7.956;2023-04-28T06:32:07;100453.25;;;9.67;100.00
5574;BME280;2563;52.242;7.956;2023-04-28T06:34:33;100458.44;;;9.66;100.00
5574;BME280;2563;52.242;7.956;2023-04-28T06:36:59;100448.28;;;9.59;100.00
5574;BME280;2563;52.242;7.956;2023-04-28T06:39:24;100450.19;;;9.51;100.00
5574;BME280;2563;52.242;7.956;2023-04-28T06:41:50;100452.88;;;9.47;100.00
5574;BME280;2563;52.242;7.956;2023-04-28T06:44:15;100438.13;;;9.55;100.00
5574;BME280;2563;52.242;7.956;2023-04-28T06:46:41;100438.84;;;9.62;100.00
5574;BME280;2563;52.242;7.956;2023-04-28T06:49:06;100433.03;;;9.53;100.00
5574;BME280;2563;52.242;7.956;2023-04-28T06:51:32;100435.69;;;9.49;100.00
5574;BME280;2563;52.242;7.956;2023-04-28T06:53:57;100432.28;;;9.48;100.00
5574;BME280;2563;52.242;7.956;2023-04-28T06:56:23;100429.56;;;9.54;100.00
5574;BME280;2563;52.242;7.956;2023-04-28T06:58:49;100423.38;;;9.63;100.00
5574;BME280;2563;52.242;7.956;2023-04-28T07:01:15;100423.34;;;9.65;100.00
5574;BME280;2563;52.242;7.956;2023-04-28T07:03:40;100422.47;;;9.66;100.00
5574;BME280;2563;52.242;7.956;2023-04-28T07:06:06;100428.03;;;9.85;100.00
5574;BME280;2563;52.242;7.956;2023-04-28T07:08:31;100417.69;;;9.86;100.00
5574;BME280;2563;52.242;7.956;2023-04-28T07:10:57;100416.88;;;9.86;100.00
5574;BME280;2563;52.242;7.956;2023-04-28T07:13:22;100423.53;;;9.94;100.00
5574;BME280;2563;52.242;7.956;2023-04-28T07:15:48;100412.41;;;9.94;100.00
5574;BME280;2563;52.242;7.956;2023-04-28T07:18:13;100406.63;;;9.84;100.00
5574;BME280;2563;52.242;7.956;2023-04-28T07:20:39;100406.41;;;9.93;100.00
5574;BME280;2563;52.242;7.956;2023-04-28T07:23:04;100407.25;;;9.94;100.00
5574;BME280;2563;52.242;7.956;2023-04-28T07:25:30;100396.06;;;9.96;100.00
5574;BME280;2563;52.242;7.956;2023-04-28T07:27:56;100398.34;;;10.07;100.00
5574;BME280;2563;52.242;7.956;2023-04-28T07:30:21;100399.75;;;10.20;100.00
5574;BME280;2563;52.242;7.956;2023-04-28T07:32:47;100389.78;;;10.42;100.00
5574;BME280;2563;52.242;7.956;2023-04-28T07:35:13;100384.94;;;10.63;100.00
5574;BME280;2563;52.242;7.956;2023-04-28T07:37:38;100385.16;;;10.55;100.00
5574;BME280;2563;52.242;7.956;2023-04-28T07:40:05;100382.97;;;10.73;100.00
5574;BME280;2563;52.242;7.956;2023-04-28T07:42:31;100386.13;;;10.82;100.00
5574;BME280;2563;52.242;7.956;2023-04-28T07:44:56;100388.53;;;10.89;100.00
5574;BME280;2563;52.242;7.956;2023-04-28T07:47:23;100378.81;;;10.98;100.00
5574;BME280;2563;52.242;7.956;2023-04-28T07:49:49;100383.09;;;10.99;100.00
5574;BME280;2563;52.242;7.956;2023-04-28T07:52:15;100381.44;;;10.97;100.00
5574;BME280;2563;52.242;7.956;2023-04-28T07:54:40;100378.47;;;10.79;100.00
5574;BME280;2563;52.242;7.956;2023-04-28T07:57:06;100384.63;;;10.75;100.00
5574;BME280;2563;52.242;7.956;2023-04-28T07:59:34;100388.06;;;10.74;100.00
5574;BME280;2563;52.242;7.956;2023-04-28T08:01:59;100378.28;;;10.87;100.00
5574;BME280;2563;52.242;7.956;2023-04-28T08:04:25;100376.28;;;10.97;100.00
5574;BME280;2563;52.242;7.956;2023-04-28T08:06:50;100374.94;;;10.83;100.00
5574;BME280;2563;52.242;7.956;2023-04-28T08:09:17;100378.34;;;10.84;100.00
5574;BME280;2563;52.242;7.956;2023-04-28T08:11:42;100386.09;;;10.84;100.00
5574;BME280;2563;52.242;7.956;2023-04-28T08:14:08;100378.41;;;10.82;100.00
5574;BME280;2563;52.242;7.956;2023-04-28T08:16:33;100381.25;;;11.03;100.00
5574;BME280;2563;52.242;7.956;2023-04-28T08:19:02;100383.81;;;11.04;100.00
5574;BME280;2563;52.242;7.956;2023-04-28T08:21:27;100385.84;;;10.92;100.00
5574;BME280;2563;52.242;7.956;2023-04-28T08:23:53;100388.25;;;10.99;100.00
5574;BME280;2563;52.242;7.956;2023-04-28T08:26:18;100393.66;;;10.90;100.00
5574;BME280;2563;52.242;7.956;2023-04-28T08:28:43;100395.38;;;10.90;100.00
5574;BME280;2563;52.242;7.956;2023-04-28T08:31:09;100399.97;;;10.78;100.00
5574;BME280;2563;52.242;7.956;2023-04-28T08:33:34;100393.94;;;10.79;100.00
5574;BME280;2563;52.242;7.956;2023-04-28T08:36:00;100392.88;;;10.86;100.00
5574;BME280;2563;52.242;7.956;2023-04-28T08:38:25;100400.13;;;10.72;100.00
5574;BME280;2563;52.242;7.956;2023-04-28T08:40:51;100401.78;;;10.75;100.00
5574;BME280;2563;52.242;7.956;2023-04-28T08:43:16;100405.13;;;10.78;100.00
5574;BME280;2563;52.242;7.956;2023-04-28T08:45:42;100392.25;;;10.78;100.00
5574;BME280;2563;52.242;7.956;2023-04-28T08:48:20;100396.22;;;10.59;100.00
5574;BME280;2563;52.242;7.956;2023-04-28T08:50:50;100395.28;;;10.61;100.00
5574;BME280;2563;52.242;7.956;2023-04-28T08:53:25;100384.94;;;10.63;100.00
5574;BME280;2563;52.242;7.956;2023-04-28T08:55:54;100381.28;;;10.72;100.00
5574;BME280;2563;52.242;7.956;2023-04-28T08:58:24;100386.84;;;10.88;100.00
5574;BME280;2563;52.242;7.956;2023-04-28T09:00:51;100374.50;;;10.99;100.00
5574;BME280;2563;52.242;7.956;2023-04-28T09:03:17;100366.94;;;11.22;100.00
5574;BME280;2563;52.242;7.956;2023-04-28T09:05:42;100362.47;;;11.29;100.00
5574;BME280;2563;52.242;7.956;2023-04-28T09:08:08;100363.13;;;11.36;100.00
5574;BME280;2563;52.242;7.956;2023-04-28T09:10:36;100362.91;;;11.42;100.00
5574;BME280;2563;52.242;7.956;2023-04-28T09:13:02;100366.22;;;11.47;100.00
5574;BME280;2563;52.242;7.956;2023-04-28T09:15:34;100359.97;;;11.54;100.00
5574;BME280;2563;52.242;7.956;2023-04-28T09:18:02;100361.56;;;11.58;100.00
5574;BME280;2563;52.242;7.956;2023-04-28T09:20:30;100363.75;;;11.70;100.00
5574;BME280;2563;52.242;7.956;2023-04-28T09:23:20;100352.38;;;12.04;100.00
5574;BME280;2563;52.242;7.956;2023-04-28T09:28:24;100343.75;;;12.79;100.00
5574;BME280;2563;52.242;7.956;2023-04-28T09:30:50;100348.91;;;12.79;100.00
5574;BME280;2563;52.242;7.956;2023-04-28T09:33:15;100345.53;;;12.77;100.00
5574;BME280;2563;52.242;7.956;2023-04-28T09:35:42;100347.03;;;12.59;100.00
5574;BME280;2563;52.242;7.956;2023-04-28T09:38:08;100347.94;;;12.58;100.00
5574;BME280;2563;52.242;7.956;2023-04-28T09:43:27;100346.63;;;12.46;100.00
5574;BME280;2563;52.242;7.956;2023-04-28T09:45:53;100342.13;;;12.51;100.00
5574;BME280;2563;52.242;7.956;2023-04-28T09:48:30;100340.16;;;12.60;100.00
5574;BME280;2563;52.242;7.956;2023-04-28T09:50:56;100322.41;;;12.74;100.00
5574;BME280;2563;52.242;7.956;2023-04-28T09:53:23;100325.50;;;13.29;100.00
5574;BME280;2563;52.242;7.956;2023-04-28T09:55:51;100321.09;;;13.96;100.00
5574;BME280;2563;52.242;7.956;2023-04-28T09:58:20;100313.03;;;14.63;100.00
5574;BME280;2563;52.242;7.956;2023-04-28T10:00:50;100306.50;;;14.55;100.00
5574;BME280;2563;52.242;7.956;2023-04-28T10:03:16;100309.25;;;14.71;100.00
5574;BME280;2563;52.242;7.956;2023-04-28T10:05:45;100304.06;;;15.45;100.00
5574;BME280;2563;52.242;7.956;2023-04-28T10:08:11;100316.81;;;15.49;100.00
5574;BME280;2563;52.242;7.956;2023-04-28T10:10:37;100322.50;;;15.39;100.00
5574;BME280;2563;52.242;7.956;2023-04-28T10:13:04;100320.59;;;15.79;100.00
5574;BME280;2563;52.242;7.956;2023-04-28T10:15:30;100337.44;;;15.70;100.00
5574;BME280;2563;52.242;7.956;2023-04-28T10:17:56;100332.31;;;15.32;100.00
5574;BME280;2563;52.242;7.956;2023-04-28T10:20:23;100332.78;;;15.23;100.00
5574;BME280;2563;52.242;7.956;2023-04-28T10:25:35;100321.91;;;15.15;100.00
5574;BME280;2563;52.242;7.956;2023-04-28T10:28:06;100329.25;;;15.60;100.00
5574;BME280;2563;52.242;7.956;2023-04-28T10:30:33;100332.63;;;15.80;100.00
5574;BME280;2563;52.242;7.956;2023-04-28T10:56:08;100292.72;;;16.00;100.00
5574;BME280;2563;52.242;7.956;2023-04-28T10:58:33;100293.19;;;15.90;100.00
5574;BME280;2563;52.242;7.956;2023-04-28T11:06:21;100279.06;;;16.29;100.00
5574;BME280;2563;52.242;7.956;2023-04-28T11:11:32;100279.38;;;16.72;100.00
5574;BME280;2563;52.242;7.956;2023-04-28T11:17:10;100279.91;;;16.30;100.00
5574;BME280;2563;52.242;7.956;2023-04-28T11:19:44;100271.69;;;16.37;100.00
5574;BME280;2563;52.242;7.956;2023-04-28T11:22:18;100266.00;;;16.47;100.00
5574;BME280;2563;52.242;7.956;2023-04-28T11:25:04;100257.50;;;16.61;100.00
5574;BME280;2563;52.242;7.956;2023-04-28T11:27:30;100264.53;;;16.74;100.00
5574;BME280;2563;52.242;7.956;2023-04-28T11:29:57;100261.38;;;17.01;100.00
5574;BME280;2563;52.242;7.956;2023-04-28T11:32:27;100258.22;;;17.56;100.00
5574;BME280;2563;52.242;7.956;2023-04-28T11:34:52;100253.75;;;17.44;100.00
5574;BME280;2563;52.242;7.956;2023-04-28T11:37:18;100247.09;;;17.24;100.00
5574;BME280;2563;52.242;7.956;2023-04-28T11:39:45;100240.34;;;17.36;100.00
5574;BME280;2563;52.242;7.956;2023-04-28T11:42:10;100258.72;;;18.22;100.00
5574;BME280;2563;52.242;7.956;2023-04-28T11:44:36;100258.06;;;18.18;100.00
5574;BME280;2563;52.242;7.956;2023-04-28T11:47:03;100249.63;;;17.70;100.00
5574;BME280;2563;52.242;7.956;2023-04-28T11:49:31;100263.72;;;18.68;100.00
5574;BME280;2563;52.242;7.956;2023-04-28T11:52:06;100254.44;;;18.35;100.00
5574;BME280;2563;52.242;7.956;2023-04-28T11:54:32;100243.00;;;17.95;100.00
5574;BME280;2563;52.242;7.956;2023-04-28T11:56:58;100248.88;;;17.98;100.00
5574;BME280;2563;52.242;7.956;2023-04-28T11:59:30;100245.78;;;18.35;100.00
5574;BME280;2563;52.242;7.956;2023-04-28T12:02:01;100244.56;;;17.83;100.00
5574;BME280;2563;52.242;7.956;2023-04-28T12:04:31;100258.78;;;18.78;100.00
5574;BME280;2563;52.242;7.956;2023-04-28T12:09:28;100228.41;;;18.62;100.00
5574;BME280;2563;52.242;7.956;2023-04-28T12:11:55;100231.19;;;18.32;100.00
5574;BME280;2563;52.242;7.956;2023-04-28T12:14:22;100208.97;;;17.53;100.00
5574;BME280;2563;52.242;7.956;2023-04-28T12:16:47;100211.69;;;17.21;100.00
5574;BME280;2563;52.242;7.956;2023-04-28T12:19:14;100220.72;;;17.75;100.00
5574;BME280;2563;52.242;7.956;2023-04-28T12:21:40;100207.84;;;17.57;100.00
5574;BME280;2563;52.242;7.956;2023-04-28T12:24:19;100211.19;;;17.59;100.00
5574;BME280;2563;52.242;7.956;2023-04-28T12:26:46;100214.25;;;17.52;100.00
5574;BME280;2563;52.242;7.956;2023-04-28T12:29:34;100205.38;;;17.70;100.00
5574;BME280;2563;52.242;7.956;2023-04-28T12:32:00;100208.97;;;17.53;100.00
5574;BME280;2563;52.242;7.956;2023-04-28T12:34:26;100202.44;;;17.32;100.00
5574;BME280;2563;52.242;7.956;2023-04-28T12:36:53;100196.91;;;17.22;100.00
5574;BME280;2563;52.242;7.956;2023-04-28T12:39:19;100203.13;;;17.19;100.00
5574;BME280;2563;52.242;7.956;2023-04-28T12:41:47;100193.88;;;16.84;100.00
5574;BME280;2563;52.242;7.956;2023-04-28T12:44:12;100197.63;;;17.10;100.00
5574;BME280;2563;52.242;7.956;2023-04-28T12:46:39;100191.44;;;16.96;100.00
5574;BME280;2563;52.242;7.956;2023-04-28T12:49:05;100201.38;;;17.04;100.00
5574;BME280;2563;52.242;7.956;2023-04-28T12:51:30;100196.28;;;17.03;100.00
5574;BME280;2563;52.242;7.956;2023-04-28T12:53:56;100193.84;;;16.99;100.00
5574;BME280;2563;52.242;7.956;2023-04-28T12:56:22;100184.06;;;16.41;100.00
5574;BME280;2563;52.242;7.956;2023-04-28T12:58:47;100178.03;;;16.72;100.00
5574;BME280;2563;52.242;7.956;2023-04-28T13:01:14;100179.59;;;16.59;100.00
5574;BME280;2563;52.242;7.956;2023-04-28T13:03:40;100181.03;;;16.80;100.00
5574;BME280;2563;52.242;7.956;2023-04-28T13:06:05;100183.31;;;16.87;100.00
5574;BME280;2563;52.242;7.956;2023-04-28T13:08:31;100183.88;;;16.92;100.00
5574;BME280;2563;52.242;7.956;2023-04-28T13:10:58;100177.50;;;16.66;100.00
5574;BME280;2563;52.242;7.956;2023-04-28T13:13:23;100168.47;;;16.89;100.00
5574;BME280;2563;52.242;7.956;2023-04-28T13:15:49;100169.78;;;16.96;100.00
5574;BME280;2563;52.242;7.956;2023-04-28T13:18:15;100172.31;;;17.28;100.00
5574;BME280;2563;52.242;7.956;2023-04-28T13:20:41;100170.03;;;17.07;100.00
5574;BME280;2563;52.242;7.956;2023-04-28T13:23:06;100166.97;;;16.85;100.00
5574;BME280;2563;52.242;7.956;2023-04-28T13:25:31;100160.59;;;16.74;100.00
5574;BME280;2563;52.242;7.956;2023-04-28T13:27:57;100162.44;;;16.72;100.00
5574;BME280;2563;52.242;7.956;2023-04-28T13:30:22;100153.16;;;16.36;100.00
5574;BME280;2563;52.242;7.956;2023-04-28T13:32:48;100154.47;;;16.44;100.00
5574;BME280;2563;52.242;7.956;2023-04-28T13:35:13;100154.81;;;16.37;100.00
5574;BME280;2563;52.242;7.956;2023-04-28T13:37:38;100145.53;;;16.33;100.00
5574;BME280;2563;52.242;7.956;2023-04-28T13:40:10;100148.88;;;16.35;100.00
5574;BME280;2563;52.242;7.956;2023-04-28T13:42:35;100147.44;;;16.14;100.00
5574;BME280;2563;52.242;7.956;2023-04-28T13:45:01;100140.47;;;15.99;100.00
5574;BME280;2563;52.242;7.956;2023-04-28T13:47:26;100143.34;;;16.10;100.00